sensor_id;sensor_type;location;lat;lon;timestamp;pressure;altitude;pressure_sealevel;temperature;humidity
58223;BME280;44020;50.890;15.796;2024-01-30T00:01:14;99062.56;;;0.55;75.91
58223;BME280;44020;50.890;15.796;2024-01-30T00:03:48;99057.71;;;0.50;76.01
58223;BME280;44020;50.890;15.796;2024-01-30T00:06:18;99056.67;;;0.49;76.27
58223;BME280;44020;50.890;15.796;2024-01-30T00:08:49;99055.45;;;0.49;76.34
58223;BME280;44020;50.890;15.796;2024-01-30T00:11:37;99062.63;;;0.47;76.17
58223;BME280;44020;50.890;15.796;2024-01-30T00:14:13;99064.74;;;0.46;76.27
58223;BME280;44020;50.890;15.796;2024-01-30T00:17:13;99065.63;;;0.44;76.52
58223;BME280;44020;50.890;15.796;2024-01-30T00:19:39;99066.70;;;0.42;76.30
58223;BME280;44020;50.890;15.796;2024-01-30T00:22:06;99056.94;;;0.38;76.38
58223;BME280;44020;50.890;15.796;2024-01-30T00:24:34;99066.59;;;0.34;76.51
58223;BME280;44020;50.890;15.796;2024-01-30T00:27:01;99064.16;;;0.28;76.29
58223;BME280;44020;50.890;15.796;2024-01-30T00:29:31;99063.34;;;0.22;76.41
58223;BME280;44020;50.890;15.796;2024-01-30T00:32:14;99060.92;;;0.18;76.39
58223;BME280;44020;50.890;15.796;2024-01-30T00:34:53;99062.70;;;0.13;76.26
58223;BME280;44020;50.890;15.796;2024-01-30T00:37:29;99057.66;;;0.10;76.48
58223;BME280;44020;50.890;15.796;2024-01-30T00:39:59;99059.41;;;0.09;76.60
58223;BME280;44020;50.890;15.796;2024-01-30T00:42:47;99057.86;;;0.06;76.60
58223;BME280;44020;50.890;15.796;2024-01-30T00:45:15;99056.98;;;0.04;76.61
58223;BME280;44020;50.890;15.796;2024-01-30T00:47:51;99061.02;;;0.03;76.83
58223;BME280;44020;50.890;15.796;2024-01-30T00:50:19;99063.11;;;0.03;76.79
58223;BME280;44020;50.890;15.796;2024-01-30T00:52:46;99066.27;;;0.01;76.84
58223;BME280;44020;50.890;15.796;2024-01-30T00:55:13;99065.77;;;-0.04;76.48
58223;BME280;44020;50.890;15.796;2024-01-30T00:57:52;99063.18;;;-0.10;76.52
58223;BME280;44020;50.890;15.796;2024-01-30T01:00:25;99064.61;;;-0.15;76.58
58223;BME280;44020;50.890;15.796;2024-01-30T01:03:06;99066.21;;;-0.19;76.67
58223;BME280;44020;50.890;15.796;2024-01-30T01:05:33;99058.70;;;-0.21;76.58
58223;BME280;44020;50.890;15.796;2024-01-30T01:08:10;99061.17;;;-0.25;76.52
58223;BME280;44020;50.890;15.796;2024-01-30T01:10:41;99060.14;;;-0.28;76.39
58223;BME280;44020;50.890;15.796;2024-01-30T01:13:17;99057.18;;;-0.32;76.42
58223;BME280;44020;50.890;15.796;2024-01-30T01:15:53;99055.64;;;-0.34;76.62
58223;BME280;44020;50.890;15.796;2024-01-30T01:18:20;99060.36;;;-0.37;76.61
58223;BME280;44020;50.890;15.796;2024-01-30T01:21:38;99057.41;;;-0.40;76.69
58223;BME280;44020;50.890;15.796;2024-01-30T01:24:04;99054.09;;;-0.42;76.86
58223;BME280;44020;50.890;15.796;2024-01-30T01:26:40;99051.14;;;-0.45;76.75
58223;BME280;44020;50.890;15.796;2024-01-30T01:29:07;99052.39;;;-0.48;76.86
58223;BME280;44020;50.890;15.796;2024-01-30T01:31:45;99048.02;;;-0.50;76.75
58223;BME280;44020;50.890;15.796;2024-01-30T01:34:18;99046.46;;;-0.54;76.66
58223;BME280;44020;50.890;15.796;2024-01-30T01:36:51;99049.60;;;-0.55;76.74
58223;BME280;44020;50.890;15.796;2024-01-30T01:39:22;99046.84;;;-0.61;76.50
58223;BME280;44020;50.890;15.796;2024-01-30T01:42:01;99045.81;;;-0.65;76.84
58223;BME280;44020;50.890;15.796;2024-01-30T01:44:33;99047.92;;;-0.69;76.75
58223;BME280;44020;50.890;15.796;2024-01-30T01:47:30;99049.33;;;-0.73;76.62
58223;BME280;44020;50.890;15.796;2024-01-30T01:50:06;99047.42;;;-0.78;76.67
58223;BME280;44020;50.890;15.796;2024-01-30T01:52:38;99046.91;;;-0.82;76.68
58223;BME280;44020;50.890;15.796;2024-01-30T01:55:07;99049.37;;;-0.85;76.78
58223;BME280;44020;50.890;15.796;2024-01-30T01:57:34;99048.85;;;-0.89;76.63
58223;BME280;44020;50.890;15.796;2024-01-30T02:00:02;99046.06;;;-0.94;76.70
58223;BME280;44020;50.890;15.796;2024-01-30T02:02:37;99040.52;;;-0.99;76.84
58223;BME280;44020;50.890;15.796;2024-01-30T02:05:06;99038.26;;;-1.03;76.78
58223;BME280;44020;50.890;15.796;2024-01-30T02:07:35;99039.29;;;-1.07;76.82
58223;BME280;44020;50.890;15.796;2024-01-30T02:10:02;99033.55;;;-1.09;77.04
58223;BME280;44020;50.890;15.796;2024-01-30T02:12:30;99032.68;;;-1.09;77.26
58223;BME280;44020;50.890;15.796;2024-01-30T02:14:57;99035.11;;;-1.08;77.34
58223;BME280;44020;50.890;15.796;2024-01-30T02:17:24;99035.82;;;-1.09;77.11
58223;BME280;44020;50.890;15.796;2024-01-30T02:19:57;99039.65;;;-1.11;77.21
58223;BME280;44020;50.890;15.796;2024-01-30T02:22:24;99041.23;;;-1.12;77.39
58223;BME280;44020;50.890;15.796;2024-01-30T02:24:55;99040.89;;;-1.15;77.13
58223;BME280;44020;50.890;15.796;2024-01-30T02:27:25;99033.56;;;-1.19;77.11
58223;BME280;44020;50.890;15.796;2024-01-30T02:29:52;99033.23;;;-1.22;77.15
58223;BME280;44020;50.890;15.796;2024-01-30T02:32:30;99034.10;;;-1.25;77.16
58223;BME280;44020;50.890;15.796;2024-01-30T02:35:00;99033.23;;;-1.30;77.36
58223;BME280;44020;50.890;15.796;2024-01-30T02:37:28;99033.07;;;-1.28;77.62
58223;BME280;44020;50.890;15.796;2024-01-30T02:39:55;99031.67;;;-1.28;77.82
58223;BME280;44020;50.890;15.796;2024-01-30T02:43:05;99031.48;;;-1.27;78.05
58223;BME280;44020;50.890;15.796;2024-01-30T02:45:32;99035.67;;;-1.27;78.14
58223;BME280;44020;50.890;15.796;2024-01-30T02:47:59;99039.52;;;-1.24;78.33
58223;BME280;44020;50.890;15.796;2024-01-30T02:50:35;99033.58;;;-1.21;78.77
58223;BME280;44020;50.890;15.796;2024-01-30T02:53:05;99034.09;;;-1.15;78.65
58223;BME280;44020;50.890;15.796;2024-01-30T02:55:33;99035.48;;;-1.15;78.17
58223;BME280;44020;50.890;15.796;2024-01-30T02:58:09;99038.98;;;-1.16;77.90
58223;BME280;44020;50.890;15.796;2024-01-30T03:03:30;99033.59;;;-1.25;78.28
58223;BME280;44020;50.890;15.796;2024-01-30T03:05:57;99029.39;;;-1.20;78.74
58223;BME280;44020;50.890;15.796;2024-01-30T03:08:24;99027.46;;;-1.16;78.94
58223;BME280;44020;50.890;15.796;2024-01-30T03:10:51;99024.67;;;-1.16;78.49
58223;BME280;44020;50.890;15.796;2024-01-30T03:13:18;99028.34;;;-1.17;79.04
58223;BME280;44020;50.890;15.796;2024-01-30T03:15:45;99027.80;;;-1.11;79.21
58223;BME280;44020;50.890;15.796;2024-01-30T03:18:12;99030.94;;;-1.12;78.74
58223;BME280;44020;50.890;15.796;2024-01-30T03:20:39;99028.16;;;-1.17;78.65
58223;BME280;44020;50.890;15.796;2024-01-30T03:23:06;99030.25;;;-1.21;78.67
58223;BME280;44020;50.890;15.796;2024-01-30T03:25:32;99027.83;;;-1.24;78.67
58223;BME280;44020;50.890;15.796;2024-01-30T03:27:59;99029.92;;;-1.28;78.68
58223;BME280;44020;50.890;15.796;2024-01-30T03:30:26;99029.40;;;-1.29;78.80
58223;BME280;44020;50.890;15.796;2024-01-30T03:32:53;99021.21;;;-1.32;78.62
58223;BME280;44020;50.890;15.796;2024-01-30T03:35:20;99022.27;;;-1.34;78.72
58223;BME280;44020;50.890;15.796;2024-01-30T03:37:47;99021.75;;;-1.38;78.64
58223;BME280;44020;50.890;15.796;2024-01-30T03:40:14;99023.14;;;-1.40;78.85
58223;BME280;44020;50.890;15.796;2024-01-30T03:42:41;99024.52;;;-1.42;78.76
58223;BME280;44020;50.890;15.796;2024-01-30T03:45:08;99021.23;;;-1.42;78.73
58223;BME280;44020;50.890;15.796;2024-01-30T03:47:35;99023.33;;;-1.46;78.72
58223;BME280;44020;50.890;15.796;2024-01-30T03:50:02;99027.33;;;-1.47;78.70
58223;BME280;44020;50.890;15.796;2024-01-30T03:52:31;99019.48;;;-1.47;78.72
58223;BME280;44020;50.890;15.796;2024-01-30T03:54:58;99021.05;;;-1.51;78.50
58223;BME280;44020;50.890;15.796;2024-01-30T03:57:25;99020.72;;;-1.55;78.69
58223;BME280;44020;50.890;15.796;2024-01-30T03:59:52;99022.27;;;-1.59;78.55
58223;BME280;44020;50.890;15.796;2024-01-30T04:02:33;99017.58;;;-1.62;78.66
58223;BME280;44020;50.890;15.796;2024-01-30T04:05:00;99014.27;;;-1.65;78.57
58223;BME280;44020;50.890;15.796;2024-01-30T04:07:27;99018.29;;;-1.67;78.64
58223;BME280;44020;50.890;15.796;2024-01-30T04:09:54;99017.59;;;-1.70;78.54
58223;BME280;44020;50.890;15.796;2024-01-30T04:12:21;99020.20;;;-1.71;78.78
58223;BME280;44020;50.890;15.796;2024-01-30T04:14:48;99016.71;;;-1.72;78.67
58223;BME280;44020;50.890;15.796;2024-01-30T04:17:15;99017.58;;;-1.74;78.45
58223;BME280;44020;50.890;15.796;2024-01-30T04:19:42;99020.02;;;-1.78;78.56
58223;BME280;44020;50.890;15.796;2024-01-30T04:22:08;99023.15;;;-1.81;78.62
58223;BME280;44020;50.890;15.796;2024-01-30T04:24:35;99027.50;;;-1.85;78.26
58223;BME280;44020;50.890;15.796;2024-01-30T04:27:02;99026.64;;;-1.89;78.58
58223;BME280;44020;50.890;15.796;2024-01-30T04:29:29;99025.59;;;-1.90;78.59
58223;BME280;44020;50.890;15.796;2024-01-30T04:31:56;99025.77;;;-1.92;78.49
58223;BME280;44020;50.890;15.796;2024-01-30T04:34:23;99025.58;;;-1.95;78.61
58223;BME280;44020;50.890;15.796;2024-01-30T04:36:50;99027.14;;;-1.96;78.83
58223;BME280;44020;50.890;15.796;2024-01-30T04:39:17;99022.63;;;-1.95;78.89
58223;BME280;44020;50.890;15.796;2024-01-30T04:41:44;99025.23;;;-1.93;79.03
58223;BME280;44020;50.890;15.796;2024-01-30T04:44:11;99027.15;;;-1.93;78.94
58223;BME280;44020;50.890;15.796;2024-01-30T04:46:38;99035.50;;;-1.95;78.68
58223;BME280;44020;50.890;15.796;2024-01-30T04:49:05;99035.15;;;-2.02;78.66
58223;BME280;44020;50.890;15.796;2024-01-30T04:51:34;99032.71;;;-2.10;78.72
58223;BME280;44020;50.890;15.796;2024-01-30T04:54:01;99034.61;;;-2.14;78.75
58223;BME280;44020;50.890;15.796;2024-01-30T04:56:28;99028.15;;;-2.15;78.77
58223;BME280;44020;50.890;15.796;2024-01-30T04:58:55;99032.52;;;-2.17;78.79
58223;BME280;44020;50.890;15.796;2024-01-30T05:01:21;99037.55;;;-2.18;78.74
58223;BME280;44020;50.890;15.796;2024-01-30T05:03:48;99038.08;;;-2.17;78.91
58223;BME280;44020;50.890;15.796;2024-01-30T05:06:24;99037.54;;;-2.16;79.08
58223;BME280;44020;50.890;15.796;2024-01-30T05:08:52;99035.65;;;-2.14;79.24
58223;BME280;44020;50.890;15.796;2024-01-30T05:11:19;99038.09;;;-2.13;79.31
58223;BME280;44020;50.890;15.796;2024-01-30T05:13:46;99034.27;;;-2.11;79.44
58223;BME280;44020;50.890;15.796;2024-01-30T05:16:13;99035.30;;;-2.11;79.10
58223;BME280;44020;50.890;15.796;2024-01-30T05:18:40;99033.73;;;-2.14;79.34
58223;BME280;44020;50.890;15.796;2024-01-30T05:21:07;99031.13;;;-2.16;79.15
58223;BME280;44020;50.890;15.796;2024-01-30T05:23:34;99027.29;;;-2.20;78.87
58223;BME280;44020;50.890;15.796;2024-01-30T05:26:01;99026.58;;;-2.22;79.13
58223;BME280;44020;50.890;15.796;2024-01-30T05:28:29;99022.40;;;-2.24;79.11
58223;BME280;44020;50.890;15.796;2024-01-30T05:30:56;99024.83;;;-2.24;79.02
58223;BME280;44020;50.890;15.796;2024-01-30T05:33:24;99031.45;;;-2.23;79.61
58223;BME280;44020;50.890;15.796;2024-01-30T05:35:51;99027.11;;;-2.17;79.83
58223;BME280;44020;50.890;15.796;2024-01-30T05:38:21;99030.23;;;-2.17;79.66
58223;BME280;44020;50.890;15.796;2024-01-30T05:40:48;99038.09;;;-2.18;79.45
58223;BME280;44020;50.890;15.796;2024-01-30T05:43:14;99037.90;;;-2.21;79.36
58223;BME280;44020;50.890;15.796;2024-01-30T05:45:42;99040.51;;;-2.24;79.43
58223;BME280;44020;50.890;15.796;2024-01-30T05:48:09;99046.94;;;-2.24;79.36
58223;BME280;44020;50.890;15.796;2024-01-30T05:50:35;99047.64;;;-2.24;79.66
58223;BME280;44020;50.890;15.796;2024-01-30T05:53:03;99050.06;;;-2.27;79.10
58223;BME280;44020;50.890;15.796;2024-01-30T05:55:30;99045.52;;;-2.33;79.36
58223;BME280;44020;50.890;15.796;2024-01-30T05:57:57;99047.96;;;-2.32;79.35
58223;BME280;44020;50.890;15.796;2024-01-30T06:00:24;99047.45;;;-2.32;79.46
58223;BME280;44020;50.890;15.796;2024-01-30T06:02:51;99047.09;;;-2.34;79.26
58223;BME280;44020;50.890;15.796;2024-01-30T06:05:18;99040.63;;;-2.39;79.41
58223;BME280;44020;50.890;15.796;2024-01-30T06:07:45;99039.77;;;-2.39;79.59
58223;BME280;44020;50.890;15.796;2024-01-30T06:10:16;99035.41;;;-2.40;79.80
58223;BME280;44020;50.890;15.796;2024-01-30T06:12:43;99034.36;;;-2.39;79.86
58223;BME280;44020;50.890;15.796;2024-01-30T06:15:10;99057.86;;;-2.40;79.82
58223;BME280;44020;50.890;15.796;2024-01-30T06:17:39;99056.98;;;-2.42;79.89
58223;BME280;44020;50.890;15.796;2024-01-30T06:20:06;99053.13;;;-2.43;79.83
58223;BME280;44020;50.890;15.796;2024-01-30T06:22:33;99050.90;;;-2.41;80.07
58223;BME280;44020;50.890;15.796;2024-01-30T06:25:00;99057.16;;;-2.42;79.97
58223;BME280;44020;50.890;15.796;2024-01-30T06:27:27;99059.23;;;-2.43;80.13
58223;BME280;44020;50.890;15.796;2024-01-30T06:29:54;99050.87;;;-2.43;80.13
58223;BME280;44020;50.890;15.796;2024-01-30T06:32:21;99057.85;;;-2.42;80.36
58223;BME280;44020;50.890;15.796;2024-01-30T06:34:48;99058.03;;;-2.41;80.34
58223;BME280;44020;50.890;15.796;2024-01-30T06:37:15;99051.77;;;-2.39;80.35
58223;BME280;44020;50.890;15.796;2024-01-30T06:39:42;99050.21;;;-2.38;80.40
58223;BME280;44020;50.890;15.796;2024-01-30T06:42:09;99046.90;;;-2.38;80.43
58223;BME280;44020;50.890;15.796;2024-01-30T06:44:36;99050.55;;;-2.38;80.56
58223;BME280;44020;50.890;15.796;2024-01-30T06:47:03;99052.13;;;-2.35;80.62
58223;BME280;44020;50.890;15.796;2024-01-30T06:49:30;99043.09;;;-2.34;80.72
58223;BME280;44020;50.890;15.796;2024-01-30T06:51:57;99047.09;;;-2.33;80.75
58223;BME280;44020;50.890;15.796;2024-01-30T06:54:24;99047.27;;;-2.33;80.78
58223;BME280;44020;50.890;15.796;2024-01-30T06:56:50;99042.40;;;-2.33;80.90
58223;BME280;44020;50.890;15.796;2024-01-30T06:59:17;99042.57;;;-2.30;80.76
58223;BME280;44020;50.890;15.796;2024-01-30T07:01:44;99045.02;;;-2.28;80.50
58223;BME280;44020;50.890;15.796;2024-01-30T07:04:11;99036.66;;;-2.28;80.66
58223;BME280;44020;50.890;15.796;2024-01-30T07:06:38;99042.92;;;-2.27;80.65
58223;BME280;44020;50.890;15.796;2024-01-30T07:09:05;99042.95;;;-2.25;80.73
58223;BME280;44020;50.890;15.796;2024-01-30T07:11:32;99040.84;;;-2.23;80.74
58223;BME280;44020;50.890;15.796;2024-01-30T07:13:59;99043.65;;;-2.20;80.74
58223;BME280;44020;50.890;15.796;2024-01-30T07:16:26;99046.25;;;-2.19;80.83
58223;BME280;44020;50.890;15.796;2024-01-30T07:18:53;99042.79;;;-2.17;80.82
58223;BME280;44020;50.890;15.796;2024-01-30T07:21:20;99041.91;;;-2.16;80.94
58223;BME280;44020;50.890;15.796;2024-01-30T07:23:51;99041.05;;;-2.14;81.16
58223;BME280;44020;50.890;15.796;2024-01-30T07:26:18;99044.89;;;-2.11;81.03
58223;BME280;44020;50.890;15.796;2024-01-30T07:28:45;99043.33;;;-2.07;81.35
58223;BME280;44020;50.890;15.796;2024-01-30T07:31:13;99045.95;;;-2.02;81.40
58223;BME280;44020;50.890;15.796;2024-01-30T07:33:40;99045.59;;;-1.98;81.58
58223;BME280;44020;50.890;15.796;2024-01-30T07:36:07;99043.16;;;-1.94;81.61
58223;BME280;44020;50.890;15.796;2024-01-30T07:38:34;99042.30;;;-1.87;82.38
58223;BME280;44020;50.890;15.796;2024-01-30T07:41:01;99039.53;;;-1.76;82.73
58223;BME280;44020;50.890;15.796;2024-01-30T07:43:28;99039.71;;;-1.64;82.79
58223;BME280;44020;50.890;15.796;2024-01-30T07:45:55;99040.05;;;-1.56;82.76
58223;BME280;44020;50.890;15.796;2024-01-30T07:48:22;99032.55;;;-1.48;82.65
58223;BME280;44020;50.890;15.796;2024-01-30T07:50:49;99033.08;;;-1.37;82.94
58223;BME280;44020;50.890;15.796;2024-01-30T07:53:16;99035.31;;;-1.24;83.54
58223;BME280;44020;50.890;15.796;2024-01-30T07:55:43;99033.20;;;-1.12;83.57
58223;BME280;44020;50.890;15.796;2024-01-30T07:58:13;99032.30;;;-0.99;83.67
58223;BME280;44020;50.890;15.796;2024-01-30T08:00:40;99031.58;;;-0.87;83.77
58223;BME280;44020;50.890;15.796;2024-01-30T08:03:07;99031.89;;;-0.74;83.79
58223;BME280;44020;50.890;15.796;2024-01-30T08:05:34;99030.45;;;-0.61;83.92
58223;BME280;44020;50.890;15.796;2024-01-30T08:08:01;99026.73;;;-0.50;83.98
58223;BME280;44020;50.890;15.796;2024-01-30T08:10:28;99025.62;;;-0.38;83.99
58223;BME280;44020;50.890;15.796;2024-01-30T08:12:55;99026.25;;;-0.26;84.09
58223;BME280;44020;50.890;15.796;2024-01-30T08:15:21;99023.58;;;-0.16;84.11
58223;BME280;44020;50.890;15.796;2024-01-30T08:17:49;99028.23;;;-0.04;83.99
58223;BME280;44020;50.890;15.796;2024-01-30T08:20:15;99028.15;;;0.07;83.98
58223;BME280;44020;50.890;15.796;2024-01-30T08:22:43;99026.66;;;0.19;83.93
58223;BME280;44020;50.890;15.796;2024-01-30T08:25:10;99025.89;;;0.29;83.83
58223;BME280;44020;50.890;15.796;2024-01-30T08:27:37;99026.50;;;0.39;84.04
58223;BME280;44020;50.890;15.796;2024-01-30T08:30:08;99029.92;;;0.50;84.09
58223;BME280;44020;50.890;15.796;2024-01-30T08:32:35;99031.04;;;0.60;83.94
58223;BME280;44020;50.890;15.796;2024-01-30T08:35:02;99025.35;;;0.71;84.12
58223;BME280;44020;50.890;15.796;2024-01-30T08:37:33;99026.65;;;0.82;83.90
58223;BME280;44020;50.890;15.796;2024-01-30T08:39:59;99028.27;;;0.94;83.79
58223;BME280;44020;50.890;15.796;2024-01-30T08:42:28;99020.64;;;1.05;83.72
58223;BME280;44020;50.890;15.796;2024-01-30T08:44:55;99022.98;;;1.16;83.40
58223;BME280;44020;50.890;15.796;2024-01-30T08:47:22;99018.45;;;1.28;83.45
58223;BME280;44020;50.890;15.796;2024-01-30T08:49:49;99015.88;;;1.38;83.54
58223;BME280;44020;50.890;15.796;2024-01-30T08:52:17;99009.27;;;1.48;83.32
58223;BME280;44020;50.890;15.796;2024-01-30T08:54:44;99006.87;;;1.57;83.34
58223;BME280;44020;50.890;15.796;2024-01-30T08:57:11;99010.40;;;1.69;83.49
58223;BME280;44020;50.890;15.796;2024-01-30T08:59:37;99010.09;;;1.79;83.23
58223;BME280;44020;50.890;15.796;2024-01-30T09:02:04;99009.41;;;1.91;83.27
58223;BME280;44020;50.890;15.796;2024-01-30T09:04:31;99009.43;;;2.01;83.24
58223;BME280;44020;50.890;15.796;2024-01-30T09:06:59;99006.45;;;2.12;83.34
58223;BME280;44020;50.890;15.796;2024-01-30T09:09:26;99005.36;;;2.25;83.02
58223;BME280;44020;50.890;15.796;2024-01-30T09:11:53;99000.96;;;2.38;82.91
58223;BME280;44020;50.890;15.796;2024-01-30T09:14:20;98999.54;;;2.49;82.78
58223;BME280;44020;50.890;15.796;2024-01-30T09:16:47;98997.95;;;2.60;82.65
58223;BME280;44020;50.890;15.796;2024-01-30T09:19:15;98997.71;;;2.74;82.69
58223;BME280;44020;50.890;15.796;2024-01-30T09:21:42;98991.17;;;2.85;82.24
58223;BME280;44020;50.890;15.796;2024-01-30T09:24:09;98993.56;;;2.99;82.16
58223;BME280;44020;50.890;15.796;2024-01-30T09:26:36;98990.35;;;3.11;81.88
58223;BME280;44020;50.890;15.796;2024-01-30T09:29:03;98986.77;;;3.24;81.61
58223;BME280;44020;50.890;15.796;2024-01-30T09:31:30;98990.77;;;3.35;81.50
58223;BME280;44020;50.890;15.796;2024-01-30T09:33:57;98985.61;;;3.45;81.14
58223;BME280;44020;50.890;15.796;2024-01-30T09:36:24;98986.40;;;3.59;80.58
58223;BME280;44020;50.890;15.796;2024-01-30T09:38:51;98984.56;;;3.71;80.38
58223;BME280;44020;50.890;15.796;2024-01-30T09:41:19;98984.80;;;3.83;79.90
58223;BME280;44020;50.890;15.796;2024-01-30T09:43:47;98983.80;;;3.96;79.59
58223;BME280;44020;50.890;15.796;2024-01-30T09:46:17;98983.22;;;4.06;79.34
58223;BME280;44020;50.890;15.796;2024-01-30T09:48:47;98978.44;;;4.14;78.88
58223;BME280;44020;50.890;15.796;2024-01-30T09:51:15;98981.39;;;4.24;78.52
58223;BME280;44020;50.890;15.796;2024-01-30T09:53:43;98980.29;;;4.33;78.37
58223;BME280;44020;50.890;15.796;2024-01-30T09:56:13;98978.85;;;4.41;78.10
58223;BME280;44020;50.890;15.796;2024-01-30T09:58:40;98976.85;;;4.51;77.49
58223;BME280;44020;50.890;15.796;2024-01-30T10:01:08;98979.21;;;4.62;77.37
58223;BME280;44020;50.890;15.796;2024-01-30T10:03:35;98968.73;;;4.72;77.00
58223;BME280;44020;50.890;15.796;2024-01-30T10:06:02;98967.61;;;4.81;76.81
58223;BME280;44020;50.890;15.796;2024-01-30T10:08:29;98966.09;;;4.92;76.33
58223;BME280;44020;50.890;15.796;2024-01-30T10:10:56;98961.92;;;5.03;75.79
58223;BME280;44020;50.890;15.796;2024-01-30T10:13:23;98963.23;;;5.12;75.47
58223;BME280;44020;50.890;15.796;2024-01-30T10:15:50;98958.39;;;5.22;75.44
58223;BME280;44020;50.890;15.796;2024-01-30T10:18:19;98958.63;;;5.32;74.84
58223;BME280;44020;50.890;15.796;2024-01-30T10:20:45;98951.83;;;5.42;74.67
58223;BME280;44020;50.890;15.796;2024-01-30T10:23:13;98952.61;;;5.51;74.00
58223;BME280;44020;50.890;15.796;2024-01-30T10:25:39;98952.45;;;5.63;73.67
58223;BME280;44020;50.890;15.796;2024-01-30T10:28:07;98946.45;;;5.74;73.48
58223;BME280;44020;50.890;15.796;2024-01-30T10:30:33;98944.05;;;5.83;73.00
58223;BME280;44020;50.890;15.796;2024-01-30T10:33:02;98940.77;;;5.93;72.87
58223;BME280;44020;50.890;15.796;2024-01-30T10:35:29;98938.17;;;6.03;72.31
58223;BME280;44020;50.890;15.796;2024-01-30T10:37:57;98937.69;;;6.13;72.49
58223;BME280;44020;50.890;15.796;2024-01-30T10:40:28;98937.55;;;6.22;72.25
58223;BME280;44020;50.890;15.796;2024-01-30T10:42:56;98932.27;;;6.32;71.80
58223;BME280;44020;50.890;15.796;2024-01-30T10:45:23;98926.64;;;6.42;71.59
58223;BME280;44020;50.890;15.796;2024-01-30T10:47:55;98921.50;;;6.54;71.39
58223;BME280;44020;50.890;15.796;2024-01-30T10:50:25;98919.70;;;6.65;71.07
58223;BME280;44020;50.890;15.796;2024-01-30T10:52:54;98916.66;;;6.76;70.80
58223;BME280;44020;50.890;15.796;2024-01-30T10:55:21;98915.58;;;6.86;70.37
58223;BME280;44020;50.890;15.796;2024-01-30T10:57:48;98911.83;;;6.98;69.76
58223;BME280;44020;50.890;15.796;2024-01-30T11:00:16;98913.13;;;7.05;69.81
58223;BME280;44020;50.890;15.796;2024-01-30T11:02:47;98907.91;;;7.13;69.68
58223;BME280;44020;50.890;15.796;2024-01-30T11:05:14;98902.54;;;7.19;69.45
58223;BME280;44020;50.890;15.796;2024-01-30T11:07:50;98899.23;;;7.27;68.92
58223;BME280;44020;50.890;15.796;2024-01-30T11:10:17;98897.45;;;7.37;68.79
58223;BME280;44020;50.890;15.796;2024-01-30T11:12:46;98899.40;;;7.46;68.53
58223;BME280;44020;50.890;15.796;2024-01-30T11:15:15;98899.42;;;7.54;68.28
58223;BME280;44020;50.890;15.796;2024-01-30T11:20:22;98897.48;;;7.73;67.61
58223;BME280;44020;50.890;15.796;2024-01-30T11:22:51;98894.25;;;7.83;67.13
58223;BME280;44020;50.890;15.796;2024-01-30T11:25:23;98894.41;;;7.92;66.73
58223;BME280;44020;50.890;15.796;2024-01-30T11:27:55;98892.12;;;8.01;66.72
58223;BME280;44020;50.890;15.796;2024-01-30T11:30:29;98891.64;;;8.08;66.34
58223;BME280;44020;50.890;15.796;2024-01-30T11:33:08;98888.18;;;8.15;65.94
58223;BME280;44020;50.890;15.796;2024-01-30T11:35:36;98882.91;;;8.22;65.87
58223;BME280;44020;50.890;15.796;2024-01-30T11:38:04;98880.20;;;8.27;65.67
58223;BME280;44020;50.890;15.796;2024-01-30T11:40:32;98875.52;;;8.34;65.47
58223;BME280;44020;50.890;15.796;2024-01-30T11:43:01;98869.55;;;8.41;65.24
58223;BME280;44020;50.890;15.796;2024-01-30T11:45:28;98867.58;;;8.51;64.81
58223;BME280;44020;50.890;15.796;2024-01-30T11:47:56;98862.04;;;8.56;64.49
58223;BME280;44020;50.890;15.796;2024-01-30T11:50:24;98855.77;;;8.61;64.13
58223;BME280;44020;50.890;15.796;2024-01-30T11:52:51;98852.02;;;8.66;64.11
58223;BME280;44020;50.890;15.796;2024-01-30T11:55:19;98848.12;;;8.70;64.22
58223;BME280;44020;50.890;15.796;2024-01-30T11:57:46;98850.45;;;8.74;64.12
58223;BME280;44020;50.890;15.796;2024-01-30T12:00:15;98846.34;;;8.79;63.73
58223;BME280;44020;50.890;15.796;2024-01-30T12:02:43;98843.36;;;8.82;63.63
58223;BME280;44020;50.890;15.796;2024-01-30T12:05:10;98845.67;;;8.85;63.33
58223;BME280;44020;50.890;15.796;2024-01-30T12:07:37;98843.91;;;8.89;63.25
58223;BME280;44020;50.890;15.796;2024-01-30T12:10:05;98837.70;;;8.93;63.12
58223;BME280;44020;50.890;15.796;2024-01-30T12:12:32;98834.80;;;8.99;63.09
58223;BME280;44020;50.890;15.796;2024-01-30T12:14:59;98835.47;;;9.03;62.86
58223;BME280;44020;50.890;15.796;2024-01-30T12:17:28;98831.49;;;9.09;62.63
58223;BME280;44020;50.890;15.796;2024-01-30T12:20:09;98834.31;;;9.16;62.31
58223;BME280;44020;50.890;15.796;2024-01-30T12:22:38;98834.49;;;9.24;61.84
58223;BME280;44020;50.890;15.796;2024-01-30T12:25:09;98831.13;;;9.32;61.39
58223;BME280;44020;50.890;15.796;2024-01-30T12:27:37;98828.38;;;9.41;60.99
58223;BME280;44020;50.890;15.796;2024-01-30T12:30:08;98827.17;;;9.48;60.15
58223;BME280;44020;50.890;15.796;2024-01-30T12:32:36;98825.50;;;9.57;60.47
58223;BME280;44020;50.890;15.796;2024-01-30T12:35:19;98824.40;;;9.65;59.91
58223;BME280;44020;50.890;15.796;2024-01-30T12:37:48;98824.75;;;9.69;58.75
58223;BME280;44020;50.890;15.796;2024-01-30T12:40:16;98823.30;;;9.70;59.28
58223;BME280;44020;50.890;15.796;2024-01-30T12:42:47;98819.16;;;9.71;58.81
58223;BME280;44020;50.890;15.796;2024-01-30T12:45:16;98817.64;;;9.72;58.78
58223;BME280;44020;50.890;15.796;2024-01-30T12:47:48;98816.48;;;9.74;59.02
58223;BME280;44020;50.890;15.796;2024-01-30T12:50:15;98814.83;;;9.76;59.09
58223;BME280;44020;50.890;15.796;2024-01-30T12:52:44;98814.52;;;9.78;58.71
58223;BME280;44020;50.890;15.796;2024-01-30T12:55:11;98813.60;;;9.83;58.24
58223;BME280;44020;50.890;15.796;2024-01-30T12:57:38;98808.77;;;9.87;58.34
58223;BME280;44020;50.890;15.796;2024-01-30T13:00:06;98810.37;;;9.91;58.48
58223;BME280;44020;50.890;15.796;2024-01-30T13:02:35;98808.08;;;9.94;58.27
58223;BME280;44020;50.890;15.796;2024-01-30T13:05:03;98811.02;;;9.99;58.13
58223;BME280;44020;50.890;15.796;2024-01-30T13:07:31;98808.17;;;10.03;58.20
58223;BME280;44020;50.890;15.796;2024-01-30T13:09:58;98808.74;;;10.05;57.81